Time;durP1;ratioP1;P1;durP2;ratioP2;P2;SDS_P1;SDS_P2;PMS_P1;PMS_P2;Temp;Humidity;BMP_temperature;BMP_pressure;BME280_temperature;BME280_humidity;BME280_pressure;Samples;Min_cycle;Max_cycle;Signal;HPM_P1;HPM_P2
2023/01/02 00:00:42;;;;;;;120.62;74.30;;;;;;;4.96;83.98;95539.64;1688975;83;21542;-43
2023/01/02 00:03:09;;;;;;;141.60;88.25;;;;;;;4.99;83.75;95530.67;1698887;83;21083;-43
2023/01/02 00:05:36;;;;;;;158.57;91.57;;;;;;;4.92;82.99;95538.88;1693610;83;21074;-44
2023/01/02 00:08:04;;;;;;;151.18;91.92;;;;;;;4.80;82.61;95539.27;1697833;83;20977;-43
2023/01/02 00:10:31;;;;;;;147.07;92.47;;;;;;;4.68;82.26;95547.85;1687912;83;21254;-43
2023/01/02 00:12:58;;;;;;;152.72;92.37;;;;;;;4.54;82.54;95554.66;1707276;83;20986;-43
2023/01/02 00:15:24;;;;;;;159.37;94.70;;;;;;;4.47;82.62;95562.84;1700286;83;21073;-43
2023/01/02 00:17:51;;;;;;;158.97;95.32;;;;;;;4.48;83.31;95561.67;1709768;83;21014;-43
2023/01/02 00:20:18;;;;;;;152.12;87.27;;;;;;;4.59;83.87;95551.53;1673973;84;21019;-43
2023/01/02 00:22:45;;;;;;;156.28;90.12;;;;;;;4.73;83.68;95569.26;1694448;83;21558;-43
2023/01/02 00:25:12;;;;;;;151.80;90.28;;;;;;;4.84;83.53;95552.33;1726489;82;20959;-42
2023/01/02 00:27:39;;;;;;;157.32;92.00;;;;;;;4.91;83.02;95544.13;1737366;81;21100;-43
2023/01/02 00:30:08;;;;;;;155.60;93.40;;;;;;;4.97;83.03;95547.24;1729087;81;21056;-42
2023/01/02 00:32:35;;;;;;;134.22;82.00;;;;;;;4.93;82.33;95542.39;1738170;81;20989;-42
2023/01/02 00:35:01;;;;;;;145.35;85.35;;;;;;;4.95;83.00;95543.53;1739795;82;21264;-42
2023/01/02 00:37:29;;;;;;;139.25;80.97;;;;;;;5.06;82.91;95541.58;1749189;81;20943;-42
2023/01/02 00:39:56;;;;;;;156.40;87.60;;;;;;;5.11;82.51;95549.36;1731727;82;21058;-42
2023/01/02 00:42:23;;;;;;;218.10;120.80;;;;;;;5.20;82.04;95551.11;1702331;83;21467;-44
2023/01/02 00:44:51;;;;;;;229.60;130.78;;;;;;;5.18;81.31;95550.70;1699424;83;21489;-43
2023/01/02 00:47:18;;;;;;;215.32;124.10;;;;;;;5.12;81.20;95549.55;1699737;83;21828;-43
2023/01/02 00:49:45;;;;;;;200.30;118.17;;;;;;;5.04;80.76;95546.66;1693655;83;21562;-42
2023/01/02 00:52:11;;;;;;;156.95;95.07;;;;;;;4.90;80.58;95549.39;1705934;83;21023;-43
2023/01/02 00:54:38;;;;;;;159.52;95.50;;;;;;;4.75;80.54;95558.74;1711660;83;21116;-43
2023/01/02 00:57:04;;;;;;;159.85;92.50;;;;;;;4.66;81.28;95557.58;1691037;83;21065;-43
2023/01/02 00:59:32;;;;;;;166.57;92.25;;;;;;;4.61;81.40;95557.37;1708659;83;21939;-44
2023/01/02 01:01:59;;;;;;;149.32;86.70;;;;;;;4.65;81.58;95560.90;1696843;83;21452;-43
2023/01/02 01:04:25;;;;;;;129.47;74.30;;;;;;;4.60;81.25;95556.41;1701856;83;20983;-42
2023/01/02 01:06:53;;;;;;;147.02;82.42;;;;;;;4.54;81.33;95562.03;1709335;83;21450;-43
2023/01/02 01:09:21;;;;;;;161.30;88.27;;;;;;;4.39;81.07;95565.34;1689538;83;20973;-43
2023/01/02 01:11:47;;;;;;;155.82;85.50;;;;;;;4.17;81.00;95562.39;1710484;83;21103;-42
2023/01/02 01:14:14;;;;;;;151.37;82.75;;;;;;;4.05;81.57;95554.58;1700789;83;21074;-43
2023/01/02 01:16:41;;;;;;;157.95;83.12;;;;;;;3.99;81.84;95545.24;1700669;83;21097;-43
2023/01/02 01:19:08;;;;;;;151.57;83.30;;;;;;;4.01;82.24;95548.36;1696799;83;21034;-43
2023/01/02 01:21:34;;;;;;;145.80;80.57;;;;;;;4.04;82.58;95533.97;1710165;83;21070;-43
2023/01/02 01:24:01;;;;;;;161.60;83.22;;;;;;;4.13;83.71;95533.03;1695761;83;21262;-44
2023/01/02 01:26:28;;;;;;;153.12;82.67;;;;;;;4.30;83.31;95539.08;1696794;83;21435;-44
2023/01/02 01:28:55;;;;;;;137.18;78.75;;;;;;;4.32;82.68;95539.47;1702547;83;21773;-43
2023/01/02 01:31:22;;;;;;;133.40;68.87;;;;;;;4.25;82.72;95531.88;1703774;83;21068;-43
2023/01/02 01:33:49;;;;;;;132.52;70.95;;;;;;;4.28;82.77;95531.86;1701079;83;21050;-45
2023/01/02 01:36:18;;;;;;;133.97;74.10;;;;;;;4.36;82.80;95532.08;1700167;83;21266;-43
2023/01/02 01:38:45;;;;;;;128.80;73.15;;;;;;;4.39;82.72;95529.93;1699019;83;21487;-43
2023/01/02 01:41:19;;;;;;;134.27;74.67;;;;;;;4.44;82.60;95532.26;1694156;83;20977;-43
2023/01/02 01:43:53;;;;;;;135.68;75.85;;;;;;;4.47;82.32;95532.88;1693264;84;21063;-43
2023/01/02 01:46:42;;;;;;;126.82;69.82;;;;;;;4.52;82.17;95529.75;1617065;87;21089;-43
2023/01/02 01:49:26;;;;;;;110.68;65.62;;;;;;;4.52;81.98;95523.50;1588812;89;22113;-43
2023/01/02 01:52:06;;;;;;;137.32;79.05;;;;;;;4.54;81.88;95527.41;1602182;89;21170;-43
2023/01/02 01:54:38;;;;;;;136.55;75.32;;;;;;;4.54;81.22;95523.33;1604073;87;21108;-43
2023/01/02 01:57:21;;;;;;;133.00;77.27;;;;;;;4.44;81.39;95522.72;1520158;93;23899;-43
2023/01/02 01:59:47;;;;;;;126.97;71.70;;;;;;;4.40;81.14;95524.67;1507952;93;21099;-43
2023/01/02 02:02:14;;;;;;;144.68;81.40;;;;;;;4.24;80.78;95529.72;1517358;93;21752;-44
2023/01/02 02:04:41;;;;;;;174.60;88.65;;;;;;;4.05;81.23;95524.63;1510933;93;21034;-44
2023/01/02 02:07:09;;;;;;;162.32;84.10;;;;;;;4.07;81.73;95530.47;1516354;93;21698;-43
2023/01/02 02:09:44;;;;;;;150.80;74.97;;;;;;;4.01;81.38;95524.42;1520872;93;21190;-44
2023/01/02 02:12:11;;;;;;;105.78;56.05;;;;;;;3.92;81.57;95524.83;1525436;93;21136;-44
2023/01/02 02:14:38;;;;;;;122.53;60.05;;;;;;;3.91;81.87;95525.95;1521109;93;21318;-43
2023/01/02 02:17:28;;;;;;;113.47;57.03;;;;;;;3.93;82.20;95517.42;1523989;93;21228;-44
2023/01/02 02:20:15;;;;;;;96.65;53.33;;;;;;;3.95;82.67;95519.97;1534114;92;21656;-44
2023/01/02 02:23:11;;;;;;;101.78;56.30;;;;;;;3.93;82.86;95510.05;1517211;91;21115;-43
2023/01/02 02:25:53;;;;;;;84.45;47.23;;;;;;;3.88;82.54;95499.52;1501755;92;21318;-42
2023/01/02 02:28:40;;;;;;;87.82;51.25;;;;;;;3.88;82.88;95508.28;1518200;93;21312;-43
2023/01/02 02:31:45;;;;;;;91.40;49.10;;;;;;;3.86;82.83;95497.77;1523987;93;21740;-43
2023/01/02 02:34:38;;;;;;;84.70;49.60;;;;;;;3.89;82.83;95499.71;1517531;93;21286;-44
2023/01/02 02:37:31;;;;;;;88.87;48.63;;;;;;;3.81;82.91;95507.67;1525829;92;21127;-44
2023/01/02 02:40:23;;;;;;;85.60;46.23;;;;;;;3.82;83.08;95496.98;1522486;91;21591;-43
2023/01/02 02:43:13;;;;;;;82.70;45.10;;;;;;;3.81;83.10;95476.38;1541677;91;21203;-43
2023/01/02 02:46:04;;;;;;;79.53;54.33;;;;;;;3.78;82.81;95483.97;1553756;91;21120;-42
2023/01/02 02:48:59;;;;;;;65.75;39.65;;;;;;;3.76;83.52;95489.02;1548314;91;21082;-44
2023/01/02 02:51:43;;;;;;;100.12;51.75;;;;;;;3.82;83.66;95484.74;1543104;92;21157;-43
2023/01/02 02:54:19;;;;;;;102.20;52.08;;;;;;;3.82;83.59;95488.82;1561466;89;21080;-43
2023/01/02 02:56:46;;;;;;;108.72;55.38;;;;;;;3.84;83.53;95481.64;1566150;89;22032;-45
2023/01/02 02:59:13;;;;;;;112.90;55.05;;;;;;;3.92;83.59;95479.91;1562937;89;21169;-44
2023/01/02 03:01:40;;;;;;;150.40;66.72;;;;;;;3.97;83.44;95468.64;1612279;88;21111;-43
2023/01/02 03:04:19;;;;;;;114.00;59.42;;;;;;;4.03;83.44;95474.48;1665505;84;21105;-43
2023/01/02 03:07:33;;;;;;;147.43;72.42;;;;;;;4.06;83.03;95467.66;1641659;86;21113;-44
2023/01/02 03:10:29;;;;;;;151.68;73.57;;;;;;;3.99;83.08;95462.22;1643007;86;21626;-43
2023/01/02 03:13:41;;;;;;;144.43;66.50;;;;;;;3.97;82.92;95461.83;1636802;86;21044;-44
2023/01/02 03:16:37;;;;;;;142.72;69.32;;;;;;;3.88;82.72;95445.69;1618800;87;21207;-42
2023/01/02 03:19:08;;;;;;;128.93;63.13;;;;;;;3.81;83.05;95446.45;1681621;83;21006;-42
2023/01/02 03:21:51;;;;;;;123.85;64.85;;;;;;;3.84;83.78;95453.08;1692538;82;21081;-43
2023/01/02 03:24:19;;;;;;;148.07;74.87;;;;;;;3.89;83.31;95443.16;1637589;85;21294;-44
2023/01/02 03:26:49;;;;;;;165.55;88.72;;;;;;;3.95;83.60;95441.03;1639542;86;21489;-43
2023/01/02 03:29:27;;;;;;;115.90;60.15;;;;;;;4.04;83.09;95441.41;1661713;85;21091;-43
2023/01/02 03:31:54;;;;;;;99.95;54.25;;;;;;;4.05;82.37;95421.19;1642193;86;20985;-43
2023/01/02 03:34:27;;;;;;;86.47;47.00;;;;;;;3.95;81.87;95427.42;1649954;85;21458;-44
2023/01/02 03:37:03;;;;;;;84.42;45.92;;;;;;;3.77;81.82;95423.91;1661415;85;21292;-43
2023/01/02 03:39:32;;;;;;;89.32;51.02;;;;;;;3.68;82.63;95437.09;1661944;85;21469;-43
2023/01/02 03:42:06;;;;;;;91.12;52.03;;;;;;;3.68;82.70;95419.41;1662592;85;21513;-42
2023/01/02 03:44:43;;;;;;;87.20;49.50;;;;;;;3.67;82.42;95422.53;1661816;86;21184;-43
2023/01/02 03:47:42;;;;;;;82.22;49.18;;;;;;;3.62;82.49;95423.69;1636439;86;21058;-43
2023/01/02 03:50:23;;;;;;;81.15;47.20;;;;;;;3.58;82.90;95418.83;1592028;89;21828;-43
2023/01/02 03:52:49;;;;;;;77.85;45.10;;;;;;;3.66;83.32;95406.77;1580992;89;21062;-43
2023/01/02 03:55:16;;;;;;;82.10;47.67;;;;;;;3.82;83.59;95412.63;1578777;89;21042;-43
2023/01/02 03:58:01;;;;;;;92.20;57.85;;;;;;;3.88;82.75;95411.66;1571082;90;21050;-43
2023/01/02 04:00:41;;;;;;;84.25;52.48;;;;;;;3.74;82.23;95402.12;1580275;89;21027;-43
2023/01/02 04:03:13;;;;;;;81.65;50.67;;;;;;;3.66;82.66;95402.70;1564700;90;21230;-42
2023/01/02 04:05:53;;;;;;;81.08;49.58;;;;;;;3.58;82.42;95413.38;1536415;92;21483;-43
2023/01/02 04:08:25;;;;;;;83.62;51.05;;;;;;;3.49;82.50;95415.68;1544476;91;21678;-42
2023/01/02 04:10:52;;;;;;;95.40;58.17;;;;;;;3.47;82.81;95411.02;1567065;90;21063;-43
2023/01/02 04:13:23;;;;;;;104.45;63.90;;;;;;;3.53;83.34;95412.37;1576747;90;21097;-43
2023/01/02 04:15:49;;;;;;;91.47;58.78;;;;;;;3.68;83.53;95414.56;1573934;91;21220;-43
2023/01/02 04:18:29;;;;;;;99.28;61.77;;;;;;;3.80;82.96;95414.96;1573924;91;21070;-43
2023/01/02 04:21:02;;;;;;;96.92;57.53;;;;;;;3.88;82.65;95421.19;1563180;91;21076;-43
2023/01/02 04:23:47;;;;;;;100.22;61.73;;;;;;;3.88;81.90;95432.84;1585614;90;21137;-44
2023/01/02 04:26:30;;;;;;;94.60;58.13;;;;;;;3.82;82.11;95415.34;1600204;89;20993;-42
2023/01/02 04:28:57;;;;;;;97.45;55.08;;;;;;;3.87;82.24;95425.84;1602259;89;21175;-42
2023/01/02 04:31:46;;;;;;;101.62;61.05;;;;;;;3.98;82.24;95432.65;1571641;90;21030;-43
2023/01/02 04:34:14;;;;;;;94.65;57.20;;;;;;;4.07;81.72;95424.89;1595879;88;21060;-44
2023/01/02 04:36:41;;;;;;;92.85;56.53;;;;;;;4.17;81.53;95430.34;1599766;88;21120;-44
2023/01/02 04:39:08;;;;;;;88.07;56.50;;;;;;;4.22;81.02;95427.81;1590233;88;21268;-43
2023/01/02 04:41:36;;;;;;;88.07;56.75;;;;;;;4.23;80.65;95430.13;1590123;89;21279;-43
2023/01/02 04:44:03;;;;;;;142.87;80.57;;;;;;;4.27;80.67;95434.98;1581689;89;21194;-44
2023/01/02 04:46:30;;;;;;;139.18;76.62;;;;;;;4.30;79.96;95436.95;1570912;90;21029;-44
2023/01/02 04:48:57;;;;;;;136.72;73.85;;;;;;;4.25;79.71;95436.56;1560015;91;21652;-43
2023/01/02 04:51:24;;;;;;;191.95;99.77;;;;;;;4.20;79.61;95430.91;1573902;90;21285;-43
2023/01/02 04:53:51;;;;;;;106.17;61.68;;;;;;;4.10;79.47;95435.80;1619511;87;21184;-42
2023/01/02 04:56:18;;;;;;;131.95;73.15;;;;;;;3.95;79.75;95442.95;1622788;87;21086;-42
2023/01/02 04:58:46;;;;;;;127.62;69.67;;;;;;;3.78;80.24;95444.50;1626462;87;20994;-43
2023/01/02 05:01:15;;;;;;;134.47;71.20;;;;;;;3.68;80.48;95453.41;1634457;87;21017;-43
2023/01/02 05:03:43;;;;;;;163.95;78.42;;;;;;;3.51;80.84;95437.83;1627664;87;21139;-44
2023/01/02 05:06:10;;;;;;;230.10;109.15;;;;;;;3.49;81.19;95433.36;1626856;87;21295;-43
2023/01/02 05:08:37;;;;;;;136.95;71.33;;;;;;;3.54;81.64;95447.94;1623846;87;21049;-44
2023/01/02 05:11:09;;;;;;;141.57;77.70;;;;;;;3.55;81.58;95442.69;1621599;87;21145;-44
2023/01/02 05:13:36;;;;;;;142.80;83.12;;;;;;;3.50;81.47;95434.91;1619081;87;21076;-44
2023/01/02 05:16:05;;;;;;;151.55;87.50;;;;;;;3.50;82.09;95437.64;1637099;85;21004;-45
2023/01/02 05:18:32;;;;;;;155.07;86.72;;;;;;;3.60;82.27;95435.53;1670647;85;21788;-44
2023/01/02 05:21:05;;;;;;;169.40;94.62;;;;;;;3.68;82.27;95438.45;1708707;82;20973;-43
2023/01/02 05:23:47;;;;;;;165.60;90.67;;;;;;;3.76;82.16;95427.79;1753127;80;20975;-43
2023/01/02 05:26:15;;;;;;;103.17;57.55;;;;;;;3.85;82.17;95435.58;1742910;80;21488;-43
2023/01/02 05:28:43;;;;;;;109.17;61.90;;;;;;;3.78;81.04;95441.78;1762237;80;21454;-43
2023/01/02 05:31:10;;;;;;;145.20;83.92;;;;;;;3.54;81.18;95439.77;1781978;80;21238;-43
2023/01/02 05:33:37;;;;;;;120.00;69.03;;;;;;;3.45;81.31;95437.83;1768118;80;20969;-42
2023/01/02 05:36:06;;;;;;;109.05;60.25;;;;;;;3.29;81.32;95436.02;1755051;80;20971;-43
2023/01/02 05:38:34;;;;;;;109.80;64.25;;;;;;;3.16;82.15;95450.55;1766222;80;20970;-51
2023/01/02 05:41:02;;;;;;;100.40;59.48;;;;;;;3.23;83.03;95436.20;1760008;80;20965;-48
2023/01/02 05:43:31;;;;;;;121.72;74.12;;;;;;;3.31;83.23;95434.49;1764177;81;21224;-48
2023/01/02 05:46:00;;;;;;;102.47;63.68;;;;;;;3.41;83.21;95445.20;1767785;80;21531;-44
2023/01/02 05:48:27;;;;;;;107.70;65.28;;;;;;;3.40;82.65;95432.77;1750975;80;20972;-43
2023/01/02 05:50:54;;;;;;;91.57;56.65;;;;;;;3.30;82.93;95430.78;1747139;80;21013;-44
2023/01/02 05:53:21;;;;;;;86.08;52.25;;;;;;;3.29;83.54;95436.81;1756289;81;20966;-43
2023/01/02 05:55:47;;;;;;;89.28;54.70;;;;;;;3.24;83.02;95449.40;1768251;80;21175;-43
2023/01/02 05:58:14;;;;;;;90.38;55.12;;;;;;;3.12;82.80;95448.97;1759043;80;20953;-42
2023/01/02 06:00:41;;;;;;;83.42;52.83;;;;;;;3.00;83.09;95447.38;1781677;80;21053;-43
2023/01/02 06:03:07;;;;;;;70.17;44.20;;;;;;;2.99;83.13;95455.33;1770379;80;21110;-43
2023/01/02 06:05:34;;;;;;;72.97;44.50;;;;;;;2.93;82.85;95468.30;1763690;80;20941;-44
2023/01/02 06:08:02;;;;;;;83.52;53.60;;;;;;;2.82;82.98;95461.45;1758971;80;21524;-42
2023/01/02 06:10:29;;;;;;;183.37;89.85;;;;;;;2.88;83.66;95464.00;1753403;80;21514;-45
2023/01/02 06:12:56;;;;;;;145.05;76.05;;;;;;;2.93;83.52;95474.52;1773095;80;21020;-44
2023/01/02 06:15:24;;;;;;;107.43;63.13;;;;;;;2.91;83.49;95470.62;1768223;80;21038;-43
2023/01/02 06:17:51;;;;;;;90.57;56.00;;;;;;;2.88;83.56;95468.67;1764116;80;21095;-44
2023/01/02 06:20:18;;;;;;;81.97;50.58;;;;;;;2.95;84.29;95478.20;1763991;80;21204;-42
2023/01/02 06:22:45;;;;;;;92.42;56.35;;;;;;;2.97;83.87;95483.47;1774636;79;21084;-45
2023/01/02 06:25:11;;;;;;;90.67;56.42;;;;;;;2.91;83.31;95478.77;1757809;80;20979;-43
2023/01/02 06:27:38;;;;;;;89.62;53.78;;;;;;;2.80;83.08;95477.36;1761047;80;20989;-44
2023/01/02 06:30:07;;;;;;;79.40;52.78;;;;;;;2.76;83.50;95483.92;1781418;80;20970;-43
2023/01/02 06:32:34;;;;;;;84.83;56.00;;;;;;;2.76;83.46;95483.92;1756536;80;21242;-44
2023/01/02 06:35:01;;;;;;;83.25;55.23;;;;;;;2.74;83.58;95487.59;1772351;79;20923;-42
2023/01/02 06:37:27;;;;;;;77.35;50.33;;;;;;;2.77;83.84;95493.62;1786987;79;20997;-44
2023/01/02 06:39:57;;;;;;;93.75;58.60;;;;;;;2.82;83.97;95489.19;1755915;80;21587;-42
2023/01/02 06:42:23;;;;;;;86.65;59.45;;;;;;;2.79;83.84;95485.30;1757698;80;21494;-44
2023/01/02 06:44:50;;;;;;;83.80;55.28;;;;;;;2.75;83.78;95491.30;1764764;80;21966;-43
2023/01/02 06:47:17;;;;;;;81.08;53.92;;;;;;;2.76;84.37;95494.78;1776859;80;21005;-42
2023/01/02 06:49:43;;;;;;;88.72;58.60;;;;;;;2.84;84.54;95501.24;1762282;80;20990;-44
2023/01/02 06:52:10;;;;;;;91.28;58.83;;;;;;;2.88;84.49;95511.55;1764386;80;20999;-44
2023/01/02 06:57:33;;;;;;;170.40;97.88;;;;;;;3.11;84.61;95508.57;1755514;80;21152;-43
2023/01/02 06:59:59;;;;;;;173.02;101.72;;;;;;;3.18;84.45;95513.47;1803837;79;20982;-46
2023/01/02 07:02:27;;;;;;;199.70;115.12;;;;;;;3.32;84.70;95512.18;1785075;79;21065;-45
2023/01/02 07:04:54;;;;;;;205.40;115.03;;;;;;;3.44;84.12;95512.42;1753873;79;21109;-44
2023/01/02 07:07:21;;;;;;;189.52;110.03;;;;;;;3.43;83.54;95511.63;1751541;80;21193;-44
2023/01/02 07:09:49;;;;;;;171.40;96.50;;;;;;;3.41;83.64;95512.59;1779427;79;21198;-43
2023/01/02 07:12:16;;;;;;;144.55;86.32;;;;;;;3.48;84.04;95511.28;1770496;80;21049;-47
2023/01/02 07:14:46;;;;;;;135.55;85.20;;;;;;;3.60;84.14;95517.14;1757396;80;21116;-52
2023/01/02 07:17:13;;;;;;;139.70;88.60;;;;;;;3.72;84.00;95507.25;1770171;79;21085;-44
2023/01/02 07:19:40;;;;;;;151.50;92.00;;;;;;;3.79;83.95;95505.13;1756749;79;21522;-49
2023/01/02 07:22:06;;;;;;;229.13;106.70;;;;;;;3.88;84.02;95509.64;1774109;79;21481;-45
2023/01/02 07:24:34;;;;;;;149.35;81.70;;;;;;;3.88;83.52;95514.48;1770213;79;20972;-45
2023/01/02 07:27:01;;;;;;;126.47;78.72;;;;;;;3.83;82.80;95512.15;1760498;79;21229;-46
2023/01/02 07:29:28;;;;;;;179.85;101.33;;;;;;;3.74;82.77;95505.52;1769172;79;21038;-47
2023/01/02 07:31:55;;;;;;;132.35;82.75;;;;;;;3.72;83.47;95505.13;1747178;79;21065;-48
2023/01/02 07:34:22;;;;;;;126.53;80.62;;;;;;;3.75;83.67;95502.42;1768475;79;21401;-45
2023/01/02 07:36:49;;;;;;;140.65;85.30;;;;;;;3.87;84.35;95502.05;1782476;78;21096;-41
2023/01/02 07:39:17;;;;;;;137.47;81.32;;;;;;;3.93;84.06;95510.05;1705525;81;21058;-47
2023/01/02 07:41:45;;;;;;;121.42;72.95;;;;;;;3.95;84.01;95500.91;1730339;81;21112;-47
2023/01/02 07:44:13;;;;;;;115.57;69.55;;;;;;;4.05;84.43;95511.02;1715893;82;21550;-44
2023/01/02 07:46:40;;;;;;;145.02;82.95;;;;;;;4.21;84.87;95499.78;1773328;79;21239;-46
2023/01/02 07:49:09;;;;;;;140.32;84.50;;;;;;;4.43;85.07;95507.55;1769313;79;21935;-47
2023/01/02 07:51:36;;;;;;;151.90;92.82;;;;;;;4.57;84.57;95498.02;1757881;79;21177;-49
2023/01/02 07:54:03;;;;;;;120.42;76.47;;;;;;;4.71;84.54;95493.92;1782127;79;21294;-47
2023/01/02 07:56:30;;;;;;;109.00;70.60;;;;;;;4.80;84.22;95498.38;1782637;78;21110;-45
2023/01/02 07:58:57;;;;;;;113.47;71.50;;;;;;;4.85;84.04;95491.19;1767141;79;21123;-46
2023/01/02 08:01:27;;;;;;;124.18;77.85;;;;;;;4.90;84.34;95490.78;1774800;78;21222;-46
2023/01/02 08:03:54;;;;;;;124.45;77.10;;;;;;;5.02;84.53;95484.13;1766859;79;21009;-46
2023/01/02 08:06:21;;;;;;;132.95;83.85;;;;;;;5.11;84.00;95485.88;1781850;78;21036;-46
2023/01/02 08:08:50;;;;;;;109.32;72.37;;;;;;;5.18;84.02;95483.11;1776655;79;21167;-46
2023/01/02 08:11:19;;;;;;;126.50;78.28;;;;;;;5.29;84.30;95473.72;1790052;79;21912;-45
2023/01/02 08:13:46;;;;;;;164.75;98.17;;;;;;;5.47;84.31;95470.33;1778294;79;21004;-48
2023/01/02 08:16:16;;;;;;;143.20;84.97;;;;;;;5.57;83.81;95463.45;1769579;80;21073;-46
2023/01/02 08:18:51;;;;;;;156.37;90.85;;;;;;;5.60;83.48;95465.39;1780814;79;21151;-49
2023/01/02 08:21:17;;;;;;;164.57;94.97;;;;;;;5.61;83.46;95454.66;1751929;78;21096;-46
2023/01/02 08:23:44;;;;;;;193.07;112.10;;;;;;;5.67;83.72;95450.93;1726450;81;23160;-46
2023/01/02 08:26:11;;;;;;;198.05;108.57;;;;;;;5.77;83.97;95452.23;1733549;81;21052;-46
2023/01/02 08:28:39;;;;;;;97.70;63.30;;;;;;;5.91;84.06;95460.95;1726198;81;21593;-47
2023/01/02 08:31:13;;;;;;;181.63;105.30;;;;;;;6.05;83.81;95469.06;1714788;80;21064;-45
2023/01/02 08:33:40;;;;;;;132.35;79.72;;;;;;;6.18;83.41;95468.18;1693463;82;21290;-43
2023/01/02 08:36:08;;;;;;;124.42;78.92;;;;;;;6.27;82.88;95467.73;1695116;82;21372;-45
2023/01/02 08:38:35;;;;;;;142.82;86.47;;;;;;;6.35;83.11;95462.41;1688304;82;21546;-49
2023/01/02 08:41:03;;;;;;;149.75;90.53;;;;;;;6.52;83.39;95453.30;1695056;83;21602;-44
2023/01/02 08:43:34;;;;;;;147.90;86.37;;;;;;;6.75;83.11;95453.47;1700957;83;21105;-44
2023/01/02 08:46:06;;;;;;;145.10;85.75;;;;;;;6.99;82.80;95456.53;1684558;82;21592;-49
2023/01/02 08:48:42;;;;;;;137.45;81.30;;;;;;;7.12;82.07;95452.89;1695228;82;27658;-46
2023/01/02 08:51:10;;;;;;;134.72;79.90;;;;;;;7.27;81.79;95446.84;1711852;82;21329;-50
2023/01/02 08:53:37;;;;;;;120.82;68.60;;;;;;;7.52;81.63;95450.66;1677606;82;21100;-47
2023/01/02 08:56:25;;;;;;;138.65;81.50;;;;;;;7.85;81.23;95442.38;1686338;83;21160;-44
2023/01/02 08:58:57;;;;;;;144.15;83.37;;;;;;;8.21;80.49;95440.70;1691292;82;21166;-45
2023/01/02 09:01:25;;;;;;;106.97;64.32;;;;;;;8.57;79.62;95438.95;1639996;84;22184;-45
2023/01/02 09:03:52;;;;;;;106.17;62.90;;;;;;;8.90;79.11;95428.39;1649103;85;21700;-44
2023/01/02 09:06:20;;;;;;;90.67;55.55;;;;;;;9.27;77.85;95427.47;1655242;84;21156;-47
2023/01/02 09:08:47;;;;;;;86.82;54.20;;;;;;;9.57;76.48;95424.52;1648580;84;21060;-48
2023/01/02 09:11:16;;;;;;;84.28;51.42;;;;;;;9.81;75.17;95416.95;1642885;84;21128;-45
2023/01/02 09:13:43;;;;;;;68.40;44.48;;;;;;;9.89;73.90;95408.71;1650902;84;21273;-45
2023/01/02 09:16:10;;;;;;;70.97;46.28;;;;;;;9.75;73.78;95404.89;1645217;84;21126;-45
2023/01/02 09:21:13;;;;;;;63.83;44.30;;;;;;;10.04;73.97;95401.73;1828740;77;22576;-49
2023/01/02 09:23:40;;;;;;;64.10;42.73;;;;;;;10.28;73.30;95401.75;1788028;79;21062;-46
2023/01/02 09:26:07;;;;;;;79.85;51.95;;;;;;;10.61;72.32;95400.55;1774083;78;21350;-44
2023/01/02 09:28:36;;;;;;;83.45;57.53;;;;;;;10.82;71.34;95391.92;1785761;78;21020;-48
2023/01/02 09:31:07;;;;;;;86.20;61.13;;;;;;;10.93;70.73;95389.67;1790317;78;21061;-47
2023/01/02 09:33:35;;;;;;;82.22;57.03;;;;;;;10.93;70.37;95388.30;1794648;78;21067;-48
2023/01/02 09:36:04;;;;;;;70.35;47.60;;;;;;;10.94;70.52;95384.33;1798689;79;21070;-46
2023/01/02 09:38:30;;;;;;;64.00;44.27;;;;;;;11.18;70.49;95380.13;1791113;78;21217;-53
2023/01/02 09:40:59;;;;;;;59.35;41.95;;;;;;;11.53;69.40;95379.75;1793105;78;21106;-46
2023/01/02 09:43:45;;;;;;;61.95;42.03;;;;;;;11.84;68.54;95373.33;1798773;78;21080;-46
2023/01/02 09:46:26;;;;;;;64.90;44.93;;;;;;;12.02;67.32;95364.50;1796516;78;21003;-44
2023/01/02 09:48:54;;;;;;;64.95;44.00;;;;;;;12.06;66.79;95366.56;1765313;79;21161;-47
2023/01/02 09:51:21;;;;;;;78.80;52.70;;;;;;;12.16;66.49;95365.44;1794944;78;21554;-49
2023/01/02 09:53:48;;;;;;;67.45;46.30;;;;;;;12.24;66.04;95362.64;1791020;79;21084;-46
2023/01/02 09:56:35;;;;;;;94.07;62.05;;;;;;;12.25;66.05;95353.91;1790825;79;21559;-49
2023/01/02 09:59:32;;;;;;;86.67;55.33;;;;;;;12.34;65.97;95347.12;1793155;79;21263;-46
2023/01/02 10:02:32;;;;;;;79.62;55.60;;;;;;;12.75;65.61;95338.64;1695917;83;21084;-47
2023/01/02 10:05:28;;;;;;;83.50;54.93;;;;;;;13.17;64.27;95335.20;1633092;86;21769;-47
2023/01/02 10:08:07;;;;;;;69.60;50.25;;;;;;;13.27;63.56;95330.51;1633038;86;22206;-45
2023/01/02 10:10:54;;;;;;;79.05;53.15;;;;;;;13.37;63.21;95324.59;1625088;87;21179;-45
2023/01/02 10:13:45;;;;;;;74.27;51.37;;;;;;;13.49;62.80;95327.12;1587704;88;21167;-47
2023/01/02 10:16:18;;;;;;;74.50;50.90;;;;;;;13.93;62.36;95317.50;1567793;90;21789;-46
2023/01/02 10:18:57;;;;;;;72.13;47.63;;;;;;;14.53;60.61;95307.75;1569031;90;21774;-48
2023/01/02 10:21:33;;;;;;;65.00;45.50;;;;;;;14.87;59.41;95313.03;1557858;91;22680;-45
2023/01/02 10:24:19;;;;;;;62.33;44.00;;;;;;;15.05;58.61;95303.34;1553130;90;21240;-51
2023/01/02 10:26:49;;;;;;;62.27;42.80;;;;;;;15.17;58.32;95302.39;1554834;91;21681;-47
2023/01/02 10:29:29;;;;;;;54.70;37.50;;;;;;;15.46;58.52;95299.16;1556850;91;21226;-46
2023/01/02 10:32:01;;;;;;;60.92;41.20;;;;;;;15.90;57.34;95294.11;1552545;90;21292;-45
2023/01/02 10:35:02;;;;;;;54.47;39.40;;;;;;;16.30;57.23;95292.55;1553531;90;21156;-48
2023/01/02 10:37:29;;;;;;;47.20;34.70;;;;;;;16.64;56.44;95291.30;1528511;93;21428;-46
2023/01/02 10:39:56;;;;;;;46.53;31.27;;;;;;;17.00;55.70;95279.31;1517037;93;21156;-46
2023/01/02 10:42:25;;;;;;;42.83;28.70;;;;;;;17.21;54.29;95274.03;1497050;93;21132;-47
2023/01/02 10:44:53;;;;;;;47.55;30.72;;;;;;;17.15;53.76;95279.34;1516060;93;21275;-45
2023/01/02 10:47:34;;;;;;;42.48;29.35;;;;;;;17.02;53.69;95274.65;1517404;93;21631;-48
2023/01/02 10:50:05;;;;;;;;;;;;;;;16.91;53.88;95269.64;1519718;93;21139;-47
2023/01/02 10:52:46;;;;;;;40.65;26.80;;;;;;;17.16;53.70;95265.58;1536750;92;20202;-47
2023/01/02 10:55:14;;;;;;;39.38;26.25;;;;;;;17.18;53.03;95260.30;1497915;93;21998;-46
2023/01/02 10:57:49;;;;;;;52.27;34.38;;;;;;;16.84;52.88;95257.51;1549102;91;22937;-46
2023/01/02 11:00:20;;;;;;;53.50;32.98;;;;;;;16.62;53.84;95260.45;1541637;91;21124;-45
2023/01/02 11:02:52;;;;;;;;;;;;;;;16.81;54.25;95263.23;1531614;92;21142;-47
2023/01/02 11:05:23;;;;;;;72.22;46.42;;;;;;;17.01;53.71;95265.56;1561769;88;20205;-45
2023/01/02 11:07:54;;;;;;;75.20;45.48;;;;;;;16.93;53.69;95262.23;1611904;88;21194;-46
2023/01/02 11:10:32;;;;;;;48.15;32.73;;;;;;;16.90;54.27;95260.41;1616934;87;21096;-46
2023/01/02 11:13:05;;;;;;;38.02;28.12;;;;;;;17.08;54.57;95258.23;1616894;86;21228;-48
2023/01/02 11:15:34;;;;;;;;;;;;;;;17.34;54.23;95257.88;1640203;86;21887;-49
2023/01/02 11:18:01;;;;;;;34.88;24.52;;;;;;;17.64;53.74;95255.88;1655479;86;20446;-46
2023/01/02 11:20:35;;;;;;;33.95;24.72;;;;;;;17.97;53.26;95250.86;1673928;84;21150;-45
2023/01/02 11:23:03;;;;;;;39.67;23.52;;;;;;;18.27;51.31;95249.70;1652303;86;21278;-46
2023/01/02 11:25:39;;;;;;;31.95;23.75;;;;;;;18.35;50.64;95254.24;1647113;87;21148;-49
2023/01/02 11:28:08;;;;;;;34.83;21.97;;;;;;;18.53;50.65;95251.20;1673064;85;21126;-47
2023/01/02 11:30:46;;;;;;;41.13;23.20;;;;;;;19.07;49.78;95251.15;1671644;85;21056;-47
2023/01/02 11:33:22;;;;;;;42.48;25.17;;;;;;;19.69;49.43;95247.13;1673939;85;21327;-50
2023/01/02 11:35:59;;;;;;;35.85;22.22;;;;;;;20.30;47.93;95242.80;1674083;85;21148;-49
2023/01/02 11:38:27;;;;;;;45.78;23.90;;;;;;;20.73;46.84;95242.30;1682308;85;21526;-50
2023/01/02 11:41:02;;;;;;;38.58;24.50;;;;;;;21.11;46.09;95238.19;1684741;84;21112;-50
2023/01/02 11:43:50;;;;;;;40.38;27.93;;;;;;;21.59;45.53;95241.61;1669133;85;21085;-50
2023/01/02 11:46:35;;;;;;;37.53;26.60;;;;;;;22.25;44.15;95233.39;1634616;87;21097;-49